sensor_id;sensor_type;location;lat;lon;timestamp;temperature;humidity
14934;DHT22;7560;51.364;12.384;2023-04-16T00:00:14;10.50;99.90
14934;DHT22;7560;51.364;12.384;2023-04-16T00:05:16;10.60;99.90
14934;DHT22;7560;51.364;12.384;2023-04-16T00:10:18;10.60;99.90
14934;DHT22;7560;51.364;12.384;2023-04-16T00:15:20;10.50;99.90
14934;DHT22;7560;51.364;12.384;2023-04-16T00:20:22;10.50;99.90
14934;DHT22;7560;51.364;12.384;2023-04-16T00:25:23;10.50;99.90
14934;DHT22;7560;51.364;12.384;2023-04-16T00:30:25;10.50;99.90
14934;DHT22;7560;51.364;12.384;2023-04-16T00:35:27;10.50;99.90
14934;DHT22;7560;51.364;12.384;2023-04-16T00:40:29;10.60;99.90
14934;DHT22;7560;51.364;12.384;2023-04-16T00:45:31;10.60;99.90
14934;DHT22;7560;51.364;12.384;2023-04-16T00:50:33;10.50;99.90
14934;DHT22;7560;51.364;12.384;2023-04-16T00:55:35;10.50;99.90
14934;DHT22;7560;51.364;12.384;2023-04-16T01:00:37;10.60;99.90
14934;DHT22;7560;51.364;12.384;2023-04-16T01:05:39;10.60;99.90
14934;DHT22;7560;51.364;12.384;2023-04-16T01:10:41;10.70;99.90
14934;DHT22;7560;51.364;12.384;2023-04-16T01:15:43;10.70;99.90
14934;DHT22;7560;51.364;12.384;2023-04-16T01:20:45;10.70;99.90
14934;DHT22;7560;51.364;12.384;2023-04-16T01:25:47;10.70;99.90
14934;DHT22;7560;51.364;12.384;2023-04-16T01:30:49;10.60;99.90
14934;DHT22;7560;51.364;12.384;2023-04-16T01:35:51;10.40;99.90
14934;DHT22;7560;51.364;12.384;2023-04-16T01:40:56;10.50;99.90
14934;DHT22;7560;51.364;12.384;2023-04-16T01:46:24;10.50;99.90
14934;DHT22;7560;51.364;12.384;2023-04-16T01:51:27;10.40;99.90
14934;DHT22;7560;51.364;12.384;2023-04-16T01:56:29;10.40;99.90
14934;DHT22;7560;51.364;12.384;2023-04-16T02:01:31;10.30;99.90
14934;DHT22;7560;51.364;12.384;2023-04-16T02:06:33;10.30;99.90
14934;DHT22;7560;51.364;12.384;2023-04-16T02:11:34;10.20;99.90
14934;DHT22;7560;51.364;12.384;2023-04-16T02:16:36;10.30;99.90
14934;DHT22;7560;51.364;12.384;2023-04-16T02:21:38;10.30;99.90
14934;DHT22;7560;51.364;12.384;2023-04-16T02:26:40;10.40;99.90
14934;DHT22;7560;51.364;12.384;2023-04-16T02:31:42;10.40;99.90
14934;DHT22;7560;51.364;12.384;2023-04-16T02:36:43;10.40;99.90
14934;DHT22;7560;51.364;12.384;2023-04-16T02:41:45;10.40;99.90
14934;DHT22;7560;51.364;12.384;2023-04-16T02:46:47;10.40;99.90
14934;DHT22;7560;51.364;12.384;2023-04-16T02:51:49;10.40;99.90
14934;DHT22;7560;51.364;12.384;2023-04-16T02:56:51;10.40;99.90
14934;DHT22;7560;51.364;12.384;2023-04-16T03:01:52;10.30;99.90
14934;DHT22;7560;51.364;12.384;2023-04-16T03:06:54;10.30;99.90
14934;DHT22;7560;51.364;12.384;2023-04-16T03:11:56;10.30;99.90
14934;DHT22;7560;51.364;12.384;2023-04-16T03:16:58;10.40;99.90
14934;DHT22;7560;51.364;12.384;2023-04-16T03:21:59;10.40;99.90
14934;DHT22;7560;51.364;12.384;2023-04-16T03:27:01;10.40;99.90
14934;DHT22;7560;51.364;12.384;2023-04-16T03:32:03;10.40;99.90
14934;DHT22;7560;51.364;12.384;2023-04-16T03:37:05;10.40;99.90
14934;DHT22;7560;51.364;12.384;2023-04-16T03:42:07;10.40;99.90
14934;DHT22;7560;51.364;12.384;2023-04-16T03:47:08;10.40;99.90
14934;DHT22;7560;51.364;12.384;2023-04-16T03:52:10;10.50;99.90
14934;DHT22;7560;51.364;12.384;2023-04-16T03:57:12;10.40;99.90
14934;DHT22;7560;51.364;12.384;2023-04-16T04:02:13;10.30;99.90
14934;DHT22;7560;51.364;12.384;2023-04-16T04:07:15;10.20;99.90
14934;DHT22;7560;51.364;12.384;2023-04-16T04:12:17;10.40;99.90
14934;DHT22;7560;51.364;12.384;2023-04-16T04:17:19;10.40;99.90
14934;DHT22;7560;51.364;12.384;2023-04-16T04:22:21;10.40;99.90
14934;DHT22;7560;51.364;12.384;2023-04-16T04:27:22;10.40;99.90
14934;DHT22;7560;51.364;12.384;2023-04-16T04:32:24;10.40;99.90
14934;DHT22;7560;51.364;12.384;2023-04-16T04:37:26;10.50;99.90
14934;DHT22;7560;51.364;12.384;2023-04-16T04:42:28;10.50;99.90
14934;DHT22;7560;51.364;12.384;2023-04-16T04:47:29;10.50;99.90
14934;DHT22;7560;51.364;12.384;2023-04-16T04:52:31;10.50;99.90
14934;DHT22;7560;51.364;12.384;2023-04-16T04:57:33;10.50;99.90
14934;DHT22;7560;51.364;12.384;2023-04-16T05:02:35;10.50;99.90
14934;DHT22;7560;51.364;12.384;2023-04-16T05:07:37;10.60;99.90
14934;DHT22;7560;51.364;12.384;2023-04-16T05:12:38;10.60;99.90
14934;DHT22;7560;51.364;12.384;2023-04-16T05:17:40;10.50;99.90
14934;DHT22;7560;51.364;12.384;2023-04-16T05:22:42;10.50;99.90
14934;DHT22;7560;51.364;12.384;2023-04-16T05:27:44;10.50;99.90
14934;DHT22;7560;51.364;12.384;2023-04-16T05:32:46;10.50;99.90
14934;DHT22;7560;51.364;12.384;2023-04-16T05:37:48;10.60;99.90
14934;DHT22;7560;51.364;12.384;2023-04-16T05:42:49;10.60;99.90
14934;DHT22;7560;51.364;12.384;2023-04-16T05:47:51;10.60;99.90
14934;DHT22;7560;51.364;12.384;2023-04-16T05:52:53;10.70;99.90
14934;DHT22;7560;51.364;12.384;2023-04-16T05:57:56;10.60;99.90
14934;DHT22;7560;51.364;12.384;2023-04-16T06:02:57;10.80;99.90
14934;DHT22;7560;51.364;12.384;2023-04-16T06:08:00;10.80;99.90
14934;DHT22;7560;51.364;12.384;2023-04-16T06:13:01;10.90;99.90
14934;DHT22;7560;51.364;12.384;2023-04-16T06:18:03;11.10;99.90
14934;DHT22;7560;51.364;12.384;2023-04-16T06:23:05;11.10;99.90
14934;DHT22;7560;51.364;12.384;2023-04-16T06:28:07;11.10;99.90
14934;DHT22;7560;51.364;12.384;2023-04-16T06:33:09;11.00;99.90
14934;DHT22;7560;51.364;12.384;2023-04-16T06:38:17;10.90;99.90
14934;DHT22;7560;51.364;12.384;2023-04-16T06:43:19;11.00;99.90
14934;DHT22;7560;51.364;12.384;2023-04-16T06:48:22;11.00;99.90
14934;DHT22;7560;51.364;12.384;2023-04-16T06:53:24;11.00;99.90
14934;DHT22;7560;51.364;12.384;2023-04-16T06:58:29;11.10;99.90
14934;DHT22;7560;51.364;12.384;2023-04-16T07:03:31;11.10;99.90
14934;DHT22;7560;51.364;12.384;2023-04-16T07:08:33;11.20;99.90
14934;DHT22;7560;51.364;12.384;2023-04-16T07:13:35;11.30;99.90
14934;DHT22;7560;51.364;12.384;2023-04-16T07:18:37;11.40;99.90
14934;DHT22;7560;51.364;12.384;2023-04-16T07:23:38;11.40;99.90
14934;DHT22;7560;51.364;12.384;2023-04-16T07:28:40;11.40;99.90
14934;DHT22;7560;51.364;12.384;2023-04-16T07:33:42;11.40;99.90
14934;DHT22;7560;51.364;12.384;2023-04-16T07:38:44;11.40;99.90
14934;DHT22;7560;51.364;12.384;2023-04-16T07:43:46;11.40;99.90
14934;DHT22;7560;51.364;12.384;2023-04-16T07:48:47;11.30;99.90
14934;DHT22;7560;51.364;12.384;2023-04-16T07:53:49;11.30;99.90
14934;DHT22;7560;51.364;12.384;2023-04-16T07:58:51;11.30;99.90
14934;DHT22;7560;51.364;12.384;2023-04-16T08:03:53;11.30;99.90
14934;DHT22;7560;51.364;12.384;2023-04-16T08:08:55;11.20;99.90
14934;DHT22;7560;51.364;12.384;2023-04-16T08:13:57;11.20;99.90
14934;DHT22;7560;51.364;12.384;2023-04-16T08:18:58;11.10;99.90
14934;DHT22;7560;51.364;12.384;2023-04-16T08:24:01;11.20;99.90
14934;DHT22;7560;51.364;12.384;2023-04-16T08:29:03;11.20;99.90
14934;DHT22;7560;51.364;12.384;2023-04-16T08:34:05;11.20;99.90
14934;DHT22;7560;51.364;12.384;2023-04-16T08:39:07;11.10;99.90
14934;DHT22;7560;51.364;12.384;2023-04-16T08:44:14;11.20;99.90
14934;DHT22;7560;51.364;12.384;2023-04-16T08:49:17;11.30;99.90
14934;DHT22;7560;51.364;12.384;2023-04-16T08:54:33;11.10;99.90
14934;DHT22;7560;51.364;12.384;2023-04-16T08:59:36;11.10;99.90
14934;DHT22;7560;51.364;12.384;2023-04-16T09:04:40;11.00;99.90
14934;DHT22;7560;51.364;12.384;2023-04-16T09:09:43;10.90;99.90
14934;DHT22;7560;51.364;12.384;2023-04-16T09:14:49;11.00;99.90
14934;DHT22;7560;51.364;12.384;2023-04-16T09:19:51;11.20;99.90
14934;DHT22;7560;51.364;12.384;2023-04-16T09:24:53;11.20;99.90
14934;DHT22;7560;51.364;12.384;2023-04-16T09:29:55;11.00;99.90
14934;DHT22;7560;51.364;12.384;2023-04-16T09:40:01;10.80;99.90
14934;DHT22;7560;51.364;12.384;2023-04-16T09:45:04;10.80;99.90
14934;DHT22;7560;51.364;12.384;2023-04-16T09:50:08;11.00;99.90
14934;DHT22;7560;51.364;12.384;2023-04-16T09:55:13;11.00;99.90
14934;DHT22;7560;51.364;12.384;2023-04-16T10:00:17;11.00;99.90
14934;DHT22;7560;51.364;12.384;2023-04-16T10:05:19;11.10;99.90
14934;DHT22;7560;51.364;12.384;2023-04-16T10:10:21;11.00;99.90
14934;DHT22;7560;51.364;12.384;2023-04-16T10:15:24;11.40;99.90
14934;DHT22;7560;51.364;12.384;2023-04-16T10:20:26;11.30;99.90
14934;DHT22;7560;51.364;12.384;2023-04-16T10:25:30;11.30;99.90
14934;DHT22;7560;51.364;12.384;2023-04-16T10:30:32;10.90;99.90
14934;DHT22;7560;51.364;12.384;2023-04-16T10:35:38;10.90;99.90
14934;DHT22;7560;51.364;12.384;2023-04-16T10:40:43;11.20;99.90
14934;DHT22;7560;51.364;12.384;2023-04-16T10:45:47;11.20;99.90
14934;DHT22;7560;51.364;12.384;2023-04-16T10:50:54;11.00;99.90
14934;DHT22;7560;51.364;12.384;2023-04-16T11:01:12;11.30;99.90
14934;DHT22;7560;51.364;12.384;2023-04-16T11:06:25;11.20;99.90
14934;DHT22;7560;51.364;12.384;2023-04-16T11:11:27;11.40;99.90
14934;DHT22;7560;51.364;12.384;2023-04-16T11:16:40;11.20;99.90
14934;DHT22;7560;51.364;12.384;2023-04-16T11:21:44;11.60;99.90
14934;DHT22;7560;51.364;12.384;2023-04-16T11:26:50;11.50;99.90
14934;DHT22;7560;51.364;12.384;2023-04-16T11:31:53;11.30;99.90
14934;DHT22;7560;51.364;12.384;2023-04-16T11:36:55;11.50;99.90
14934;DHT22;7560;51.364;12.384;2023-04-16T11:41:57;11.40;99.90
14934;DHT22;7560;51.364;12.384;2023-04-16T11:47:04;11.10;99.90
14934;DHT22;7560;51.364;12.384;2023-04-16T11:52:07;11.00;99.90
14934;DHT22;7560;51.364;12.384;2023-04-16T11:57:09;11.00;99.90
14934;DHT22;7560;51.364;12.384;2023-04-16T12:02:11;11.10;99.90
14934;DHT22;7560;51.364;12.384;2023-04-16T12:07:13;11.10;99.90
14934;DHT22;7560;51.364;12.384;2023-04-16T12:12:29;11.60;99.90
14934;DHT22;7560;51.364;12.384;2023-04-16T12:17:34;11.70;99.90
14934;DHT22;7560;51.364;12.384;2023-04-16T12:22:37;11.80;99.90
14934;DHT22;7560;51.364;12.384;2023-04-16T12:27:58;11.50;99.90
14934;DHT22;7560;51.364;12.384;2023-04-16T12:33:16;11.50;99.90
14934;DHT22;7560;51.364;12.384;2023-04-16T12:38:18;11.60;99.90
14934;DHT22;7560;51.364;12.384;2023-04-16T12:43:23;11.30;99.90
14934;DHT22;7560;51.364;12.384;2023-04-16T12:48:25;11.20;99.90
14934;DHT22;7560;51.364;12.384;2023-04-16T12:53:27;11.00;99.90
14934;DHT22;7560;51.364;12.384;2023-04-16T12:58:29;11.20;99.90
14934;DHT22;7560;51.364;12.384;2023-04-16T13:03:31;11.20;99.90
14934;DHT22;7560;51.364;12.384;2023-04-16T13:08:33;11.10;99.90
14934;DHT22;7560;51.364;12.384;2023-04-16T13:13:35;11.20;99.90
14934;DHT22;7560;51.364;12.384;2023-04-16T13:18:37;11.40;99.90
14934;DHT22;7560;51.364;12.384;2023-04-16T13:23:39;11.30;99.90
14934;DHT22;7560;51.364;12.384;2023-04-16T13:28:41;11.50;99.90
14934;DHT22;7560;51.364;12.384;2023-04-16T13:33:43;11.30;99.90
14934;DHT22;7560;51.364;12.384;2023-04-16T13:38:45;11.40;99.90
14934;DHT22;7560;51.364;12.384;2023-04-16T13:48:54;11.60;99.90
14934;DHT22;7560;51.364;12.384;2023-04-16T13:53:56;11.80;99.90
14934;DHT22;7560;51.364;12.384;2023-04-16T13:58:58;11.80;99.90
14934;DHT22;7560;51.364;12.384;2023-04-16T14:04:00;11.60;99.90
14934;DHT22;7560;51.364;12.384;2023-04-16T14:09:07;11.70;99.90
14934;DHT22;7560;51.364;12.384;2023-04-16T14:14:11;11.70;99.90
14934;DHT22;7560;51.364;12.384;2023-04-16T14:19:13;11.40;99.90
14934;DHT22;7560;51.364;12.384;2023-04-16T14:24:15;11.30;99.90
14934;DHT22;7560;51.364;12.384;2023-04-16T14:29:16;11.20;99.90
14934;DHT22;7560;51.364;12.384;2023-04-16T14:34:18;11.20;99.90
14934;DHT22;7560;51.364;12.384;2023-04-16T14:39:20;11.00;99.90
14934;DHT22;7560;51.364;12.384;2023-04-16T14:44:22;10.90;99.90
14934;DHT22;7560;51.364;12.384;2023-04-16T14:49:24;10.80;99.90
14934;DHT22;7560;51.364;12.384;2023-04-16T14:54:26;11.00;99.90
14934;DHT22;7560;51.364;12.384;2023-04-16T14:59:28;11.00;99.90
14934;DHT22;7560;51.364;12.384;2023-04-16T15:04:30;11.20;99.90
14934;DHT22;7560;51.364;12.384;2023-04-16T15:09:33;11.30;99.90
14934;DHT22;7560;51.364;12.384;2023-04-16T15:14:35;11.30;99.90
14934;DHT22;7560;51.364;12.384;2023-04-16T15:19:36;11.40;99.90
14934;DHT22;7560;51.364;12.384;2023-04-16T15:24:38;11.10;99.90
14934;DHT22;7560;51.364;12.384;2023-04-16T15:29:40;11.10;99.90
14934;DHT22;7560;51.364;12.384;2023-04-16T15:34:42;11.20;99.90
14934;DHT22;7560;51.364;12.384;2023-04-16T15:39:44;11.50;99.90
14934;DHT22;7560;51.364;12.384;2023-04-16T15:44:45;11.50;99.90
14934;DHT22;7560;51.364;12.384;2023-04-16T15:49:47;11.60;99.90
14934;DHT22;7560;51.364;12.384;2023-04-16T15:54:49;11.60;99.90
14934;DHT22;7560;51.364;12.384;2023-04-16T15:59:51;11.60;99.90
14934;DHT22;7560;51.364;12.384;2023-04-16T16:05:11;11.60;99.90
14934;DHT22;7560;51.364;12.384;2023-04-16T16:10:14;11.50;99.90
14934;DHT22;7560;51.364;12.384;2023-04-16T16:15:16;11.50;99.90
14934;DHT22;7560;51.364;12.384;2023-04-16T16:20:18;11.40;99.90
14934;DHT22;7560;51.364;12.384;2023-04-16T16:25:20;11.20;99.90
14934;DHT22;7560;51.364;12.384;2023-04-16T16:30:22;11.00;99.90
14934;DHT22;7560;51.364;12.384;2023-04-16T16:35:24;11.00;99.90
14934;DHT22;7560;51.364;12.384;2023-04-16T16:40:27;10.80;99.90
14934;DHT22;7560;51.364;12.384;2023-04-16T16:45:28;10.80;99.90
14934;DHT22;7560;51.364;12.384;2023-04-16T16:50:31;10.70;99.90
14934;DHT22;7560;51.364;12.384;2023-04-16T16:55:33;10.60;99.90
14934;DHT22;7560;51.364;12.384;2023-04-16T17:00:36;10.50;99.90
14934;DHT22;7560;51.364;12.384;2023-04-16T17:05:38;10.60;99.90
14934;DHT22;7560;51.364;12.384;2023-04-16T17:10:40;10.50;99.90
14934;DHT22;7560;51.364;12.384;2023-04-16T17:15:44;10.50;99.90
14934;DHT22;7560;51.364;12.384;2023-04-16T17:20:46;10.50;99.90
14934;DHT22;7560;51.364;12.384;2023-04-16T17:25:48;10.40;99.90
14934;DHT22;7560;51.364;12.384;2023-04-16T17:30:51;10.40;99.90
14934;DHT22;7560;51.364;12.384;2023-04-16T17:35:53;10.40;99.90
14934;DHT22;7560;51.364;12.384;2023-04-16T17:40:56;10.40;99.90
14934;DHT22;7560;51.364;12.384;2023-04-16T17:45:57;10.40;99.90
14934;DHT22;7560;51.364;12.384;2023-04-16T17:51:07;10.50;99.90
14934;DHT22;7560;51.364;12.384;2023-04-16T17:56:09;10.50;99.90
14934;DHT22;7560;51.364;12.384;2023-04-16T18:01:11;10.40;99.90
14934;DHT22;7560;51.364;12.384;2023-04-16T18:06:14;10.60;99.90
14934;DHT22;7560;51.364;12.384;2023-04-16T18:11:15;10.40;99.90
14934;DHT22;7560;51.364;12.384;2023-04-16T18:16:17;10.40;99.90
14934;DHT22;7560;51.364;12.384;2023-04-16T18:21:19;10.40;99.90
14934;DHT22;7560;51.364;12.384;2023-04-16T18:26:21;10.40;99.90
14934;DHT22;7560;51.364;12.384;2023-04-16T18:31:23;10.30;99.90
14934;DHT22;7560;51.364;12.384;2023-04-16T18:36:25;10.30;99.90
14934;DHT22;7560;51.364;12.384;2023-04-16T18:41:28;10.30;99.90
14934;DHT22;7560;51.364;12.384;2023-04-16T18:46:30;10.40;99.90
14934;DHT22;7560;51.364;12.384;2023-04-16T18:51:32;10.40;99.90
14934;DHT22;7560;51.364;12.384;2023-04-16T18:56:34;10.40;99.90
14934;DHT22;7560;51.364;12.384;2023-04-16T19:01:36;10.40;99.90
14934;DHT22;7560;51.364;12.384;2023-04-16T19:06:37;10.50;99.90
14934;DHT22;7560;51.364;12.384;2023-04-16T19:11:39;10.50;99.90
14934;DHT22;7560;51.364;12.384;2023-04-16T19:16:41;10.40;99.90
14934;DHT22;7560;51.364;12.384;2023-04-16T19:21:43;10.40;99.90
14934;DHT22;7560;51.364;12.384;2023-04-16T19:26:45;10.30;99.90
14934;DHT22;7560;51.364;12.384;2023-04-16T19:31:46;10.40;99.90
14934;DHT22;7560;51.364;12.384;2023-04-16T19:36:48;10.40;99.90
14934;DHT22;7560;51.364;12.384;2023-04-16T19:41:50;10.30;99.90
14934;DHT22;7560;51.364;12.384;2023-04-16T19:46:52;10.30;99.90
14934;DHT22;7560;51.364;12.384;2023-04-16T19:51:54;10.20;99.90
14934;DHT22;7560;51.364;12.384;2023-04-16T19:56:55;10.20;99.90
14934;DHT22;7560;51.364;12.384;2023-04-16T20:01:57;10.20;99.90
14934;DHT22;7560;51.364;12.384;2023-04-16T20:06:59;10.20;99.90
14934;DHT22;7560;51.364;12.384;2023-04-16T20:12:02;10.20;99.90
14934;DHT22;7560;51.364;12.384;2023-04-16T20:17:04;10.20;99.90
14934;DHT22;7560;51.364;12.384;2023-04-16T20:22:10;10.20;99.90
14934;DHT22;7560;51.364;12.384;2023-04-16T20:27:13;10.10;99.90
14934;DHT22;7560;51.364;12.384;2023-04-16T20:32:15;10.10;99.90
14934;DHT22;7560;51.364;12.384;2023-04-16T20:37:17;10.10;99.90
14934;DHT22;7560;51.364;12.384;2023-04-16T20:42:19;10.20;99.90
14934;DHT22;7560;51.364;12.384;2023-04-16T20:47:22;10.20;99.90
14934;DHT22;7560;51.364;12.384;2023-04-16T20:52:24;10.10;99.90
14934;DHT22;7560;51.364;12.384;2023-04-16T20:57:26;10.10;99.90
14934;DHT22;7560;51.364;12.384;2023-04-16T21:02:30;10.00;99.90
14934;DHT22;7560;51.364;12.384;2023-04-16T21:07:32;10.00;99.90
14934;DHT22;7560;51.364;12.384;2023-04-16T21:12:34;10.00;99.90
14934;DHT22;7560;51.364;12.384;2023-04-16T21:17:37;10.00;99.90
14934;DHT22;7560;51.364;12.384;2023-04-16T21:22:39;9.90;99.90
14934;DHT22;7560;51.364;12.384;2023-04-16T21:27:41;9.90;99.90
14934;DHT22;7560;51.364;12.384;2023-04-16T21:32:42;10.00;99.90
14934;DHT22;7560;51.364;12.384;2023-04-16T21:37:44;10.00;99.90
14934;DHT22;7560;51.364;12.384;2023-04-16T21:42:46;10.00;99.90
14934;DHT22;7560;51.364;12.384;2023-04-16T21:47:48;10.00;99.90
14934;DHT22;7560;51.364;12.384;2023-04-16T21:52:50;10.10;99.90
14934;DHT22;7560;51.364;12.384;2023-04-16T21:57:53;10.00;99.90
14934;DHT22;7560;51.364;12.384;2023-04-16T22:02:54;10.00;99.90
14934;DHT22;7560;51.364;12.384;2023-04-16T22:08:01;9.90;99.90
14934;DHT22;7560;51.364;12.384;2023-04-16T22:13:21;9.90;99.90
14934;DHT22;7560;51.364;12.384;2023-04-16T22:18:25;9.80;99.90
14934;DHT22;7560;51.364;12.384;2023-04-16T22:23:27;9.80;99.90
14934;DHT22;7560;51.364;12.384;2023-04-16T22:28:29;9.90;99.90
14934;DHT22;7560;51.364;12.384;2023-04-16T22:33:31;9.80;99.90
14934;DHT22;7560;51.364;12.384;2023-04-16T22:38:32;9.70;99.90
14934;DHT22;7560;51.364;12.384;2023-04-16T22:43:35;9.70;99.90
14934;DHT22;7560;51.364;12.384;2023-04-16T22:48:37;9.60;99.90
14934;DHT22;7560;51.364;12.384;2023-04-16T22:53:39;9.60;99.90
14934;DHT22;7560;51.364;12.384;2023-04-16T22:58:41;9.50;99.90
14934;DHT22;7560;51.364;12.384;2023-04-16T23:03:43;9.50;99.90
14934;DHT22;7560;51.364;12.384;2023-04-16T23:08:45;9.40;99.90
14934;DHT22;7560;51.364;12.384;2023-04-16T23:13:47;9.50;99.90
14934;DHT22;7560;51.364;12.384;2023-04-16T23:18:48;9.40;99.90
14934;DHT22;7560;51.364;12.384;2023-04-16T23:23:50;9.40;99.90
14934;DHT22;7560;51.364;12.384;2023-04-16T23:28:52;9.30;99.90
14934;DHT22;7560;51.364;12.384;2023-04-16T23:33:53;9.40;99.90
14934;DHT22;7560;51.364;12.384;2023-04-16T23:38:55;9.30;99.90
14934;DHT22;7560;51.364;12.384;2023-04-16T23:43:57;9.30;99.90
14934;DHT22;7560;51.364;12.384;2023-04-16T23:48:59;9.20;99.90
14934;DHT22;7560;51.364;12.384;2023-04-16T23:54:01;9.20;99.90
14934;DHT22;7560;51.364;12.384;2023-04-16T23:59:02;9.20;99.90
